LROP/OTP METAR and TAF weather

Enter ICAO airport designator
Station Type Date Time Source
LROP METAR 2019/06/18 05:00 UTC NOAA

LROP 180500Z 31004KT 280V350 CAVOK 23/20 Q1016 NOSIG


Station Type Date Time Source
LROP Decoded METAR 2019/06/18 05:00 UTC NOAA

Bucuresti Otopeni, Romania (LROP) 44-33N 026-06E 95M
Jun 18, 2019 - 01:00 AM EDT / 2019.06.18 0500 UTC
Wind: from the NW (310 degrees) at 5 MPH (4 KT) (direction variable):0
Visibility: greater than 7 mile(s):0
Temperature: 73 F (23 C)
Dew Point: 68 F (20 C)
Relative Humidity: 83%
Pressure (altimeter): 30.00 in. Hg (1016 hPa)
ob: LROP 180500Z 31004KT 280V350 CAVOK 23/20 Q1016 NOSIG
cycle: 5

Station Type Date Time Source
LROP TAF 2019/06/17 18:34 UTC NOAA

TAF LROP 171700Z 1718/1818 VRB04KT CAVOK PROB30
TEMPO 1812/1816 5000 -TSRA BKN015 SCT030CB

Example: see airport list